createdAt,value
2023-04-03T00:02:24.556Z,102105.84
2023-04-03T00:09:08.707Z,102106.38
2023-04-03T00:15:52.629Z,102119.13
2023-04-03T00:22:34.879Z,102120.53
2023-04-03T00:29:17.840Z,102109.75
2023-04-03T00:36:00.264Z,102124.03
2023-04-03T00:42:46.942Z,102117.63
2023-04-03T00:49:29.915Z,102120.81
2023-04-03T00:56:16.244Z,102121.38
2023-04-03T01:02:58.572Z,102115.06
2023-04-03T01:09:43.519Z,102114.84
2023-04-03T01:16:26.340Z,102125.88
2023-04-03T01:23:14.235Z,102129.22
2023-04-03T01:29:57.170Z,102132.66
2023-04-03T01:36:39.555Z,102138.63
2023-04-03T01:43:21.892Z,102143.03
2023-04-03T01:50:05.379Z,102140.34
2023-04-03T01:56:49.853Z,102148.00
2023-04-03T02:03:33.829Z,102146.13
2023-04-03T02:10:16.508Z,102146.75
2023-04-03T02:16:58.678Z,102156.03
2023-04-03T02:23:41.113Z,102161.84
2023-04-03T02:30:23.406Z,102160.75
2023-04-03T02:37:06.237Z,102165.66
2023-04-03T02:43:48.799Z,102170.63
2023-04-03T02:50:32.500Z,102175.59
2023-04-03T02:57:14.890Z,102174.66
2023-04-03T03:03:57.206Z,102179.63
2023-04-03T03:10:39.775Z,102184.69
2023-04-03T03:17:23.263Z,102182.00
2023-04-03T03:24:06.090Z,102187.13
2023-04-03T03:30:48.903Z,102188.91
2023-04-03T03:37:31.221Z,102192.38
2023-04-03T03:44:15.335Z,102198.53
2023-04-03T03:50:57.952Z,102194.22
2023-04-03T03:57:45.642Z,102195.19
2023-04-03T04:04:27.965Z,102205.91
2023-04-03T04:11:11.667Z,102209.75
2023-04-03T04:17:55.304Z,102213.72
2023-04-03T04:24:39.734Z,102219.28
2023-04-03T04:31:24.042Z,102225.00
2023-04-03T04:38:09.613Z,102223.59
2023-04-03T04:44:52.893Z,102233.56
2023-04-03T04:51:48.384Z,102231.34
2023-04-03T04:58:36.994Z,102237.94
2023-04-03T05:05:19.812Z,102246.19
2023-04-03T05:12:04.005Z,102244.88
2023-04-03T05:18:55.258Z,102255.53
2023-04-03T05:25:40.104Z,102257.44
2023-04-03T05:32:26.197Z,102261.09
2023-04-03T05:39:18.019Z,102264.91
2023-04-03T05:46:02.865Z,102274.88
2023-04-03T05:52:49.540Z,102287.53
2023-04-03T05:59:32.605Z,102295.06
2023-04-03T06:06:16.488Z,102292.25
2023-04-03T06:12:58.843Z,102287.25
2023-04-03T06:19:41.097Z,102299.25
2023-04-03T06:26:23.452Z,102303.38
2023-04-03T06:33:05.884Z,102308.88
2023-04-03T06:39:48.691Z,102313.56
2023-04-03T06:46:31.189Z,102326.91
2023-04-03T06:53:14.505Z,102324.63
2023-04-03T06:59:56.662Z,102329.22
2023-04-03T07:06:39.463Z,102332.78
2023-04-03T07:13:21.817Z,102345.88
2023-04-03T07:20:05.062Z,102337.09
2023-04-03T07:26:52.512Z,102331.66
2023-04-03T07:33:36.562Z,102347.00
2023-04-03T07:40:19.700Z,102345.00
2023-04-03T07:47:02.975Z,102349.19
2023-04-03T07:53:45.449Z,102358.22
2023-04-03T08:00:27.663Z,102357.84
2023-04-03T08:07:10.534Z,102361.09
2023-04-03T08:13:53.636Z,102376.47
2023-04-03T08:20:36.252Z,102377.44
2023-04-03T08:27:18.585Z,102389.47
2023-04-03T08:34:00.907Z,102378.47
2023-04-03T08:40:43.273Z,102377.94
2023-04-03T08:47:57.498Z,102384.50
2023-04-03T08:54:59.326Z,102375.56
2023-04-03T09:01:42.394Z,102375.72
2023-04-03T09:08:44.636Z,102372.34
2023-04-03T09:15:37.649Z,102394.75
2023-04-03T09:22:27.548Z,102379.34
2023-04-03T09:29:15.266Z,102374.75
2023-04-03T09:35:57.460Z,102373.84
2023-04-03T09:42:46.275Z,102359.97
2023-04-03T09:49:31.406Z,102371.69
2023-04-03T09:56:16.837Z,102380.31
2023-04-03T10:02:59.932Z,102379.78
2023-04-03T10:10:00.236Z,102369.50
2023-04-03T10:16:58.391Z,102365.47
2023-04-03T10:24:00.912Z,102365.69
2023-04-03T10:30:54.373Z,102357.91
2023-04-03T10:37:59.349Z,102351.81
2023-04-03T10:45:06.873Z,102356.75
2023-04-03T10:52:38.800Z,102357.00
2023-04-03T10:59:36.768Z,102349.66
2023-04-03T11:06:22.279Z,102360.22
2023-04-03T11:13:31.970Z,102344.75
2023-04-03T11:20:33.945Z,102353.56
2023-04-03T11:27:24.703Z,102337.88
2023-04-03T11:35:00.222Z,102349.47
2023-04-03T11:41:42.477Z,102345.38
2023-04-03T11:48:34.215Z,102334.91
2023-04-03T11:55:22.251Z,102335.94
2023-04-03T12:02:47.623Z,102345.03
2023-04-03T12:09:58.285Z,102328.97
2023-04-03T12:16:40.553Z,102338.69
2023-04-03T12:23:33.812Z,102326.59
2023-04-03T12:30:26.393Z,102331.78
2023-04-03T12:38:15.421Z,102344.50
2023-04-03T12:45:22.758Z,102321.94
2023-04-03T12:52:34.619Z,102329.44
2023-04-03T12:59:27.888Z,102330.81
2023-04-03T13:06:22.661Z,102326.69
2023-04-03T13:13:11.141Z,102321.50
2023-04-03T13:19:53.523Z,102320.22
2023-04-03T13:26:36.272Z,102303.50
2023-04-03T13:33:28.576Z,102302.41
2023-04-03T13:40:14.111Z,102295.00
2023-04-03T13:47:12.902Z,102302.00
2023-04-03T13:53:59.811Z,102301.34
2023-04-03T14:01:34.133Z,102291.84
2023-04-03T14:08:17.195Z,102290.69
2023-04-03T14:15:05.890Z,102279.38
2023-04-03T14:21:48.738Z,102280.56
2023-04-03T14:28:32.884Z,102291.59
2023-04-03T14:35:16.306Z,102295.34
2023-04-03T14:41:58.478Z,102285.22
2023-04-03T14:48:41.479Z,102283.72
2023-04-03T14:55:26.216Z,102274.16
2023-04-03T15:02:27.621Z,102283.25
2023-04-03T15:09:21.569Z,102287.75
2023-04-03T15:16:04.690Z,102288.53
2023-04-03T15:22:47.447Z,102282.97
2023-04-03T15:29:29.752Z,102295.56
2023-04-03T15:36:29.115Z,102281.63
2023-04-03T15:43:15.880Z,102294.53
2023-04-03T15:49:58.060Z,102279.94
2023-04-03T15:56:40.451Z,102284.72
2023-04-03T16:03:25.257Z,102285.28
2023-04-03T16:10:09.958Z,102282.50
2023-04-03T16:16:52.289Z,102277.97
2023-04-03T16:23:35.621Z,102276.00
2023-04-03T16:30:17.794Z,102280.47
2023-04-03T16:37:00.546Z,102274.81
2023-04-03T16:50:29.929Z,102272.59
2023-04-03T16:57:12.505Z,102276.91
2023-04-03T17:03:54.897Z,102284.22
2023-04-03T17:10:37.176Z,102281.28
2023-04-03T17:17:25.398Z,102286.19
2023-04-03T17:24:09.468Z,102287.72
2023-04-03T17:30:51.923Z,102281.41
2023-04-03T17:37:34.121Z,102274.25
2023-04-03T17:44:16.416Z,102268.84
2023-04-03T17:50:58.713Z,102278.38
2023-04-03T17:57:41.299Z,102274.81
2023-04-03T18:04:23.495Z,102283.44
2023-04-03T18:11:06.286Z,102283.38
2023-04-03T18:17:50.472Z,102274.69
2023-04-03T18:24:36.669Z,102278.06
2023-04-03T18:31:20.053Z,102275.34
2023-04-03T18:38:02.288Z,102273.38
2023-04-03T18:44:48.324Z,102268.72
2023-04-03T18:51:30.916Z,102276.75
2023-04-03T18:58:13.682Z,102282.16
2023-04-03T19:04:56.289Z,102274.72
2023-04-03T19:11:38.787Z,102275.47
2023-04-03T19:18:21.042Z,102264.91
2023-04-03T19:25:05.535Z,102263.06
2023-04-03T19:31:47.708Z,102261.44
2023-04-03T19:38:29.904Z,102254.56
2023-04-03T19:45:15.025Z,102244.19
2023-04-03T19:51:57.681Z,102254.53
2023-04-03T19:58:41.242Z,102246.72
2023-04-03T20:05:24.459Z,102235.50
2023-04-03T20:12:09.570Z,102244.13
2023-04-03T20:18:55.106Z,102228.56
2023-04-03T20:25:54.160Z,102228.59
2023-04-03T20:32:40.136Z,102225.94
2023-04-03T20:39:24.718Z,102225.00
2023-04-03T20:46:06.963Z,102217.97
2023-04-03T20:52:49.719Z,102220.44
2023-04-03T20:59:34.108Z,102209.84
2023-04-03T21:07:12.614Z,102212.31
2023-04-03T21:14:52.171Z,102208.00
2023-04-03T21:21:37.342Z,102213.16
2023-04-03T21:28:19.896Z,102206.94
2023-04-03T21:35:02.009Z,102207.63
2023-04-03T21:41:44.491Z,102214.44
2023-04-03T21:48:30.974Z,102212.59
2023-04-03T21:55:15.440Z,102210.84
2023-04-03T22:01:57.796Z,102203.94
2023-04-03T22:08:40.583Z,102210.00
2023-04-03T22:15:22.793Z,102203.91
2023-04-03T22:22:05.311Z,102204.69
2023-04-03T22:28:48.055Z,102200.25
2023-04-03T22:35:30.194Z,102205.31
2023-04-03T22:42:12.397Z,102200.88
2023-04-03T22:48:54.618Z,102205.94
2023-04-03T22:55:38.237Z,102193.59
2023-04-03T23:02:20.534Z,102211.72
2023-04-03T23:09:02.753Z,102190.94
2023-04-03T23:15:44.988Z,102182.13
2023-04-03T23:22:27.495Z,102186.44
2023-04-03T23:29:09.679Z,102178.66
2023-04-03T23:35:52.680Z,102169.09
2023-04-03T23:42:34.819Z,102177.63
2023-04-03T23:49:17.317Z,102175.88
2023-04-03T23:55:59.700Z,102171.56
